sensor_id;sensor_type;location;lat;lon;timestamp;temperature;humidity
59148;DHT22;44930;52.878;6.168;2023-04-15T00:00:14;7.50;99.90
59148;DHT22;44930;52.878;6.168;2023-04-15T00:05:07;7.30;99.90
59148;DHT22;44930;52.878;6.168;2023-04-15T00:07:33;7.30;99.90
59148;DHT22;44930;52.878;6.168;2023-04-15T00:09:58;7.30;99.90
59148;DHT22;44930;52.878;6.168;2023-04-15T00:12:25;7.20;99.90
59148;DHT22;44930;52.878;6.168;2023-04-15T00:14:51;7.40;99.90
59148;DHT22;44930;52.878;6.168;2023-04-15T00:17:17;7.30;99.90
59148;DHT22;44930;52.878;6.168;2023-04-15T00:22:10;7.30;99.90
59148;DHT22;44930;52.878;6.168;2023-04-15T00:24:36;7.10;99.90
59148;DHT22;44930;52.878;6.168;2023-04-15T00:27:02;6.90;99.90
59148;DHT22;44930;52.878;6.168;2023-04-15T00:29:28;7.10;99.90
59148;DHT22;44930;52.878;6.168;2023-04-15T00:31:55;6.90;99.90
59148;DHT22;44930;52.878;6.168;2023-04-15T00:34:21;7.10;99.90
59148;DHT22;44930;52.878;6.168;2023-04-15T00:36:47;7.00;99.90
59148;DHT22;44930;52.878;6.168;2023-04-15T00:39:13;7.00;99.90
59148;DHT22;44930;52.878;6.168;2023-04-15T00:41:39;6.90;99.90
59148;DHT22;44930;52.878;6.168;2023-04-15T00:44:07;7.00;99.90
59148;DHT22;44930;52.878;6.168;2023-04-15T00:46:37;7.20;99.90
59148;DHT22;44930;52.878;6.168;2023-04-15T00:49:04;6.90;99.90
59148;DHT22;44930;52.878;6.168;2023-04-15T00:51:31;6.80;99.90
59148;DHT22;44930;52.878;6.168;2023-04-15T00:53:58;6.90;99.90
59148;DHT22;44930;52.878;6.168;2023-04-15T00:56:25;6.70;99.90
59148;DHT22;44930;52.878;6.168;2023-04-15T00:58:51;6.80;99.90
59148;DHT22;44930;52.878;6.168;2023-04-15T01:03:49;6.80;99.90
59148;DHT22;44930;52.878;6.168;2023-04-15T01:06:16;6.70;99.90
59148;DHT22;44930;52.878;6.168;2023-04-15T01:08:42;6.80;99.90
59148;DHT22;44930;52.878;6.168;2023-04-15T01:11:08;6.70;99.90
59148;DHT22;44930;52.878;6.168;2023-04-15T01:16:01;6.70;99.90
59148;DHT22;44930;52.878;6.168;2023-04-15T01:18:28;6.60;99.90
59148;DHT22;44930;52.878;6.168;2023-04-15T01:20:53;6.60;99.90
59148;DHT22;44930;52.878;6.168;2023-04-15T01:23:20;6.60;99.90
59148;DHT22;44930;52.878;6.168;2023-04-15T01:25:48;6.70;99.90
59148;DHT22;44930;52.878;6.168;2023-04-15T01:28:14;6.50;99.90
59148;DHT22;44930;52.878;6.168;2023-04-15T01:30:40;6.60;99.90
59148;DHT22;44930;52.878;6.168;2023-04-15T01:33:06;6.50;99.90
59148;DHT22;44930;52.878;6.168;2023-04-15T01:35:31;6.60;99.90
59148;DHT22;44930;52.878;6.168;2023-04-15T01:38:04;6.50;99.90
59148;DHT22;44930;52.878;6.168;2023-04-15T01:40:30;6.40;99.90
59148;DHT22;44930;52.878;6.168;2023-04-15T01:42:56;6.50;99.90
59148;DHT22;44930;52.878;6.168;2023-04-15T01:45:22;6.40;99.90
59148;DHT22;44930;52.878;6.168;2023-04-15T01:47:47;6.30;99.90
59148;DHT22;44930;52.878;6.168;2023-04-15T01:50:13;6.50;99.90
59148;DHT22;44930;52.878;6.168;2023-04-15T01:52:39;6.40;99.90
59148;DHT22;44930;52.878;6.168;2023-04-15T01:55:06;6.40;99.90
59148;DHT22;44930;52.878;6.168;2023-04-15T01:57:32;6.50;99.90
59148;DHT22;44930;52.878;6.168;2023-04-15T01:59:58;6.40;99.90
59148;DHT22;44930;52.878;6.168;2023-04-15T02:04:50;6.60;99.90
59148;DHT22;44930;52.878;6.168;2023-04-15T02:07:15;6.30;99.90
59148;DHT22;44930;52.878;6.168;2023-04-15T02:09:41;6.30;99.90
59148;DHT22;44930;52.878;6.168;2023-04-15T02:12:08;6.20;99.90
59148;DHT22;44930;52.878;6.168;2023-04-15T02:14:33;6.20;99.90
59148;DHT22;44930;52.878;6.168;2023-04-15T02:16:59;6.20;99.90
59148;DHT22;44930;52.878;6.168;2023-04-15T02:21:57;6.20;99.90
59148;DHT22;44930;52.878;6.168;2023-04-15T02:24:23;6.00;99.90
59148;DHT22;44930;52.878;6.168;2023-04-15T02:26:48;6.00;99.90
59148;DHT22;44930;52.878;6.168;2023-04-15T02:29:14;6.00;99.90
59148;DHT22;44930;52.878;6.168;2023-04-15T02:31:39;6.00;99.90
59148;DHT22;44930;52.878;6.168;2023-04-15T02:34:06;6.00;99.90
59148;DHT22;44930;52.878;6.168;2023-04-15T02:36:32;5.80;99.90
59148;DHT22;44930;52.878;6.168;2023-04-15T02:38:59;5.90;99.90
59148;DHT22;44930;52.878;6.168;2023-04-15T02:41:24;5.80;99.90
59148;DHT22;44930;52.878;6.168;2023-04-15T02:43:52;5.60;99.90
59148;DHT22;44930;52.878;6.168;2023-04-15T02:46:18;5.70;99.90
59148;DHT22;44930;52.878;6.168;2023-04-15T02:48:43;5.50;99.90
59148;DHT22;44930;52.878;6.168;2023-04-15T02:51:20;5.50;99.90
59148;DHT22;44930;52.878;6.168;2023-04-15T02:56:15;5.50;99.90
59148;DHT22;44930;52.878;6.168;2023-04-15T02:58:42;5.30;99.90
59148;DHT22;44930;52.878;6.168;2023-04-15T03:01:09;5.30;99.90
59148;DHT22;44930;52.878;6.168;2023-04-15T03:03:34;5.40;99.90
59148;DHT22;44930;52.878;6.168;2023-04-15T03:06:00;5.60;99.90
59148;DHT22;44930;52.878;6.168;2023-04-15T03:08:25;5.50;99.90
59148;DHT22;44930;52.878;6.168;2023-04-15T03:13:18;5.30;99.90
59148;DHT22;44930;52.878;6.168;2023-04-15T03:15:47;5.10;99.90
59148;DHT22;44930;52.878;6.168;2023-04-15T03:18:12;5.30;99.90
59148;DHT22;44930;52.878;6.168;2023-04-15T03:20:38;5.30;99.90
59148;DHT22;44930;52.878;6.168;2023-04-15T03:23:04;5.20;99.90
59148;DHT22;44930;52.878;6.168;2023-04-15T03:25:29;5.10;99.90
59148;DHT22;44930;52.878;6.168;2023-04-15T03:27:55;5.00;99.90
59148;DHT22;44930;52.878;6.168;2023-04-15T03:30:21;5.10;99.90
59148;DHT22;44930;52.878;6.168;2023-04-15T03:32:46;5.10;99.90
59148;DHT22;44930;52.878;6.168;2023-04-15T03:35:12;5.10;99.90
59148;DHT22;44930;52.878;6.168;2023-04-15T03:37:37;5.00;99.90
59148;DHT22;44930;52.878;6.168;2023-04-15T03:40:03;5.00;99.90
59148;DHT22;44930;52.878;6.168;2023-04-15T03:42:29;5.00;99.90
59148;DHT22;44930;52.878;6.168;2023-04-15T03:44:55;4.90;99.90
59148;DHT22;44930;52.878;6.168;2023-04-15T03:47:21;4.90;99.90
59148;DHT22;44930;52.878;6.168;2023-04-15T03:54:38;4.80;99.90
59148;DHT22;44930;52.878;6.168;2023-04-15T03:57:04;4.80;99.90
59148;DHT22;44930;52.878;6.168;2023-04-15T03:59:30;4.90;99.90
59148;DHT22;44930;52.878;6.168;2023-04-15T04:01:55;4.70;99.90
59148;DHT22;44930;52.878;6.168;2023-04-15T04:04:21;4.70;99.90
59148;DHT22;44930;52.878;6.168;2023-04-15T04:06:46;5.10;99.90
59148;DHT22;44930;52.878;6.168;2023-04-15T04:09:12;4.90;99.90
59148;DHT22;44930;52.878;6.168;2023-04-15T04:11:37;4.70;99.90
59148;DHT22;44930;52.878;6.168;2023-04-15T04:16:29;4.70;99.90
59148;DHT22;44930;52.878;6.168;2023-04-15T04:18:54;4.70;99.90
59148;DHT22;44930;52.878;6.168;2023-04-15T04:21:20;4.60;99.90
59148;DHT22;44930;52.878;6.168;2023-04-15T04:23:46;4.60;99.90
59148;DHT22;44930;52.878;6.168;2023-04-15T04:26:12;4.60;99.90
59148;DHT22;44930;52.878;6.168;2023-04-15T04:28:37;4.60;99.90
59148;DHT22;44930;52.878;6.168;2023-04-15T04:31:05;4.50;99.90
59148;DHT22;44930;52.878;6.168;2023-04-15T04:33:31;4.50;99.90
59148;DHT22;44930;52.878;6.168;2023-04-15T04:35:57;4.50;99.90
59148;DHT22;44930;52.878;6.168;2023-04-15T04:38:23;4.50;99.90
59148;DHT22;44930;52.878;6.168;2023-04-15T04:40:48;4.40;99.90
59148;DHT22;44930;52.878;6.168;2023-04-15T04:43:14;4.50;99.90
59148;DHT22;44930;52.878;6.168;2023-04-15T04:45:40;4.40;99.90
59148;DHT22;44930;52.878;6.168;2023-04-15T04:48:06;4.50;99.90
59148;DHT22;44930;52.878;6.168;2023-04-15T04:50:33;4.50;99.90
59148;DHT22;44930;52.878;6.168;2023-04-15T04:52:59;4.50;99.90
59148;DHT22;44930;52.878;6.168;2023-04-15T04:55:26;4.40;99.90
59148;DHT22;44930;52.878;6.168;2023-04-15T04:57:52;4.50;99.90
59148;DHT22;44930;52.878;6.168;2023-04-15T05:00:17;4.40;99.90
59148;DHT22;44930;52.878;6.168;2023-04-15T05:02:43;4.40;99.90
59148;DHT22;44930;52.878;6.168;2023-04-15T05:05:09;4.40;99.90
59148;DHT22;44930;52.878;6.168;2023-04-15T05:07:36;4.50;99.90
59148;DHT22;44930;52.878;6.168;2023-04-15T05:10:02;4.50;99.90
59148;DHT22;44930;52.878;6.168;2023-04-15T05:12:28;4.50;99.90
59148;DHT22;44930;52.878;6.168;2023-04-15T05:14:53;4.50;99.90
59148;DHT22;44930;52.878;6.168;2023-04-15T05:17:19;4.50;99.90
59148;DHT22;44930;52.878;6.168;2023-04-15T05:22:10;4.50;99.90
59148;DHT22;44930;52.878;6.168;2023-04-15T05:24:36;4.50;99.90
59148;DHT22;44930;52.878;6.168;2023-04-15T05:27:02;4.50;99.90
59148;DHT22;44930;52.878;6.168;2023-04-15T05:29:27;4.60;99.90
59148;DHT22;44930;52.878;6.168;2023-04-15T05:31:53;4.70;99.90
59148;DHT22;44930;52.878;6.168;2023-04-15T05:34:19;4.80;99.90
59148;DHT22;44930;52.878;6.168;2023-04-15T05:36:44;4.80;99.90
59148;DHT22;44930;52.878;6.168;2023-04-15T05:39:10;4.80;99.90
59148;DHT22;44930;52.878;6.168;2023-04-15T05:41:35;4.90;99.90
59148;DHT22;44930;52.878;6.168;2023-04-15T05:44:02;4.90;99.90
59148;DHT22;44930;52.878;6.168;2023-04-15T05:46:27;4.90;99.90
59148;DHT22;44930;52.878;6.168;2023-04-15T05:48:53;4.90;99.90
59148;DHT22;44930;52.878;6.168;2023-04-15T05:51:19;5.10;99.90
59148;DHT22;44930;52.878;6.168;2023-04-15T05:53:44;5.10;99.90
59148;DHT22;44930;52.878;6.168;2023-04-15T05:58:36;5.20;99.90
59148;DHT22;44930;52.878;6.168;2023-04-15T06:03:28;5.40;99.90
59148;DHT22;44930;52.878;6.168;2023-04-15T06:05:54;5.40;99.90
59148;DHT22;44930;52.878;6.168;2023-04-15T06:08:20;5.50;99.90
59148;DHT22;44930;52.878;6.168;2023-04-15T06:10:46;5.60;99.90
59148;DHT22;44930;52.878;6.168;2023-04-15T06:13:12;5.40;99.90
59148;DHT22;44930;52.878;6.168;2023-04-15T06:15:37;5.60;99.90
59148;DHT22;44930;52.878;6.168;2023-04-15T06:18:03;5.60;99.90
59148;DHT22;44930;52.878;6.168;2023-04-15T06:22:54;5.60;99.90
59148;DHT22;44930;52.878;6.168;2023-04-15T06:25:20;5.60;99.90
59148;DHT22;44930;52.878;6.168;2023-04-15T06:27:46;5.60;99.90
59148;DHT22;44930;52.878;6.168;2023-04-15T06:30:12;5.60;99.90
59148;DHT22;44930;52.878;6.168;2023-04-15T06:32:38;5.50;99.90
59148;DHT22;44930;52.878;6.168;2023-04-15T06:35:04;5.80;99.90
59148;DHT22;44930;52.878;6.168;2023-04-15T06:37:29;5.70;99.90
59148;DHT22;44930;52.878;6.168;2023-04-15T06:39:55;5.80;99.90
59148;DHT22;44930;52.878;6.168;2023-04-15T06:42:21;5.80;99.90
59148;DHT22;44930;52.878;6.168;2023-04-15T06:44:47;6.00;99.90
59148;DHT22;44930;52.878;6.168;2023-04-15T06:47:12;6.00;99.90
59148;DHT22;44930;52.878;6.168;2023-04-15T06:49:39;6.30;99.90
59148;DHT22;44930;52.878;6.168;2023-04-15T06:52:05;6.40;99.90
59148;DHT22;44930;52.878;6.168;2023-04-15T06:54:31;6.40;99.90
59148;DHT22;44930;52.878;6.168;2023-04-15T06:56:56;6.40;99.90
59148;DHT22;44930;52.878;6.168;2023-04-15T07:01:48;6.70;99.90
59148;DHT22;44930;52.878;6.168;2023-04-15T07:04:13;6.80;99.90
59148;DHT22;44930;52.878;6.168;2023-04-15T07:06:39;6.90;99.90
59148;DHT22;44930;52.878;6.168;2023-04-15T07:09:06;7.00;99.90
59148;DHT22;44930;52.878;6.168;2023-04-15T07:11:31;7.10;99.90
59148;DHT22;44930;52.878;6.168;2023-04-15T07:16:23;7.20;99.90
59148;DHT22;44930;52.878;6.168;2023-04-15T07:18:49;7.30;99.90
59148;DHT22;44930;52.878;6.168;2023-04-15T07:21:14;7.50;99.90
59148;DHT22;44930;52.878;6.168;2023-04-15T07:23:41;7.50;99.90
59148;DHT22;44930;52.878;6.168;2023-04-15T07:26:07;7.70;99.90
59148;DHT22;44930;52.878;6.168;2023-04-15T07:28:33;7.70;99.90
59148;DHT22;44930;52.878;6.168;2023-04-15T07:30:58;7.70;99.90
59148;DHT22;44930;52.878;6.168;2023-04-15T07:33:24;7.80;99.90
59148;DHT22;44930;52.878;6.168;2023-04-15T07:35:49;8.00;99.90
59148;DHT22;44930;52.878;6.168;2023-04-15T07:38:15;8.10;99.90
59148;DHT22;44930;52.878;6.168;2023-04-15T07:40:41;8.10;99.90
59148;DHT22;44930;52.878;6.168;2023-04-15T07:43:07;8.20;99.90
59148;DHT22;44930;52.878;6.168;2023-04-15T07:45:33;8.00;99.90
59148;DHT22;44930;52.878;6.168;2023-04-15T07:48:00;8.60;99.90
59148;DHT22;44930;52.878;6.168;2023-04-15T07:52:52;8.70;99.90
59148;DHT22;44930;52.878;6.168;2023-04-15T07:55:18;8.90;99.90
59148;DHT22;44930;52.878;6.168;2023-04-15T07:57:46;9.00;99.90
59148;DHT22;44930;52.878;6.168;2023-04-15T08:00:12;9.00;99.90
59148;DHT22;44930;52.878;6.168;2023-04-15T08:07:30;9.30;99.90
59148;DHT22;44930;52.878;6.168;2023-04-15T08:09:56;9.10;99.90
59148;DHT22;44930;52.878;6.168;2023-04-15T08:12:22;9.50;99.90
59148;DHT22;44930;52.878;6.168;2023-04-15T08:14:49;9.40;99.90
59148;DHT22;44930;52.878;6.168;2023-04-15T08:17:15;9.50;99.90
59148;DHT22;44930;52.878;6.168;2023-04-15T08:19:41;9.40;99.90
59148;DHT22;44930;52.878;6.168;2023-04-15T08:22:07;9.60;99.90
59148;DHT22;44930;52.878;6.168;2023-04-15T08:24:33;9.70;99.90
59148;DHT22;44930;52.878;6.168;2023-04-15T08:26:58;9.60;99.90
59148;DHT22;44930;52.878;6.168;2023-04-15T08:29:24;9.70;99.90
59148;DHT22;44930;52.878;6.168;2023-04-15T08:31:50;9.80;99.90
59148;DHT22;44930;52.878;6.168;2023-04-15T08:36:42;9.80;99.90
59148;DHT22;44930;52.878;6.168;2023-04-15T08:39:08;9.80;99.90
59148;DHT22;44930;52.878;6.168;2023-04-15T08:41:47;10.00;99.90
59148;DHT22;44930;52.878;6.168;2023-04-15T08:44:17;9.80;99.90
59148;DHT22;44930;52.878;6.168;2023-04-15T08:46:43;9.90;99.90
59148;DHT22;44930;52.878;6.168;2023-04-15T08:49:12;10.10;99.90
59148;DHT22;44930;52.878;6.168;2023-04-15T08:51:39;10.00;99.90
59148;DHT22;44930;52.878;6.168;2023-04-15T08:54:07;10.00;99.90
59148;DHT22;44930;52.878;6.168;2023-04-15T08:59:00;9.90;99.90
59148;DHT22;44930;52.878;6.168;2023-04-15T09:01:26;10.10;99.90
59148;DHT22;44930;52.878;6.168;2023-04-15T09:03:52;10.00;99.90
59148;DHT22;44930;52.878;6.168;2023-04-15T09:06:21;9.80;99.90
59148;DHT22;44930;52.878;6.168;2023-04-15T09:11:13;9.90;99.90
59148;DHT22;44930;52.878;6.168;2023-04-15T09:13:39;9.80;99.90
59148;DHT22;44930;52.878;6.168;2023-04-15T09:16:05;9.90;99.90
59148;DHT22;44930;52.878;6.168;2023-04-15T09:18:32;9.90;99.90
59148;DHT22;44930;52.878;6.168;2023-04-15T09:21:05;9.80;99.90
59148;DHT22;44930;52.878;6.168;2023-04-15T09:23:31;10.00;99.90
59148;DHT22;44930;52.878;6.168;2023-04-15T09:25:57;9.70;99.90
59148;DHT22;44930;52.878;6.168;2023-04-15T09:28:23;9.80;99.90
59148;DHT22;44930;52.878;6.168;2023-04-15T09:30:57;9.80;99.90
59148;DHT22;44930;52.878;6.168;2023-04-15T09:33:24;9.60;99.90
59148;DHT22;44930;52.878;6.168;2023-04-15T09:36:04;9.40;99.90
59148;DHT22;44930;52.878;6.168;2023-04-15T09:38:31;9.50;99.90
59148;DHT22;44930;52.878;6.168;2023-04-15T09:40:57;9.50;99.90
59148;DHT22;44930;52.878;6.168;2023-04-15T09:43:37;9.60;99.90
59148;DHT22;44930;52.878;6.168;2023-04-15T09:46:03;9.60;99.90
59148;DHT22;44930;52.878;6.168;2023-04-15T09:48:29;9.60;99.90
59148;DHT22;44930;52.878;6.168;2023-04-15T09:51:00;9.70;99.90
59148;DHT22;44930;52.878;6.168;2023-04-15T09:53:26;9.50;99.90
59148;DHT22;44930;52.878;6.168;2023-04-15T09:55:53;9.50;99.90
59148;DHT22;44930;52.878;6.168;2023-04-15T09:58:21;9.20;99.90
59148;DHT22;44930;52.878;6.168;2023-04-15T10:00:49;9.40;99.90
59148;DHT22;44930;52.878;6.168;2023-04-15T10:03:20;9.50;99.90
59148;DHT22;44930;52.878;6.168;2023-04-15T10:05:48;9.50;99.90
59148;DHT22;44930;52.878;6.168;2023-04-15T10:08:22;9.70;99.90
59148;DHT22;44930;52.878;6.168;2023-04-15T10:13:18;10.10;99.90
59148;DHT22;44930;52.878;6.168;2023-04-15T10:15:49;10.30;99.90
59148;DHT22;44930;52.878;6.168;2023-04-15T10:18:16;10.40;99.90
59148;DHT22;44930;52.878;6.168;2023-04-15T10:23:10;10.60;99.90
59148;DHT22;44930;52.878;6.168;2023-04-15T10:25:37;10.40;99.90
59148;DHT22;44930;52.878;6.168;2023-04-15T10:28:05;10.30;99.90
59148;DHT22;44930;52.878;6.168;2023-04-15T10:32:58;10.20;99.90
59148;DHT22;44930;52.878;6.168;2023-04-15T10:35:24;10.30;99.90
59148;DHT22;44930;52.878;6.168;2023-04-15T10:37:50;10.30;99.90
59148;DHT22;44930;52.878;6.168;2023-04-15T10:43:03;10.30;99.90
59148;DHT22;44930;52.878;6.168;2023-04-15T10:45:37;10.50;99.90
59148;DHT22;44930;52.878;6.168;2023-04-15T10:48:05;10.70;99.90
59148;DHT22;44930;52.878;6.168;2023-04-15T10:50:31;10.80;99.90
59148;DHT22;44930;52.878;6.168;2023-04-15T10:52:57;10.80;99.90
59148;DHT22;44930;52.878;6.168;2023-04-15T10:55:25;10.70;99.90
59148;DHT22;44930;52.878;6.168;2023-04-15T10:57:57;10.70;99.90
59148;DHT22;44930;52.878;6.168;2023-04-15T11:00:25;10.50;99.90
59148;DHT22;44930;52.878;6.168;2023-04-15T11:02:56;10.50;99.90
59148;DHT22;44930;52.878;6.168;2023-04-15T11:08:06;10.60;99.90
59148;DHT22;44930;52.878;6.168;2023-04-15T11:10:49;10.40;99.90
59148;DHT22;44930;52.878;6.168;2023-04-15T11:13:17;10.30;99.90
59148;DHT22;44930;52.878;6.168;2023-04-15T11:15:47;10.40;99.90
59148;DHT22;44930;52.878;6.168;2023-04-15T11:18:19;10.20;99.90
59148;DHT22;44930;52.878;6.168;2023-04-15T11:21:02;10.30;99.90
59148;DHT22;44930;52.878;6.168;2023-04-15T11:25:58;10.50;99.90
59148;DHT22;44930;52.878;6.168;2023-04-15T11:28:28;10.30;99.90
59148;DHT22;44930;52.878;6.168;2023-04-15T11:30:55;10.20;99.90
59148;DHT22;44930;52.878;6.168;2023-04-15T11:33:22;10.10;99.90
59148;DHT22;44930;52.878;6.168;2023-04-15T11:35:48;10.20;99.90
59148;DHT22;44930;52.878;6.168;2023-04-15T11:38:14;10.20;99.90
59148;DHT22;44930;52.878;6.168;2023-04-15T11:40:42;10.40;99.90
59148;DHT22;44930;52.878;6.168;2023-04-15T11:43:19;10.10;99.90
59148;DHT22;44930;52.878;6.168;2023-04-15T11:45:55;10.00;99.90
59148;DHT22;44930;52.878;6.168;2023-04-15T11:48:25;10.10;99.90
59148;DHT22;44930;52.878;6.168;2023-04-15T11:50:53;10.00;99.90
59148;DHT22;44930;52.878;6.168;2023-04-15T11:53:19;9.90;99.90
59148;DHT22;44930;52.878;6.168;2023-04-15T11:55:50;10.00;99.90
59148;DHT22;44930;52.878;6.168;2023-04-15T11:58:24;9.80;99.90
59148;DHT22;44930;52.878;6.168;2023-04-15T12:00:57;9.90;99.90
59148;DHT22;44930;52.878;6.168;2023-04-15T12:03:49;10.20;99.90
59148;DHT22;44930;52.878;6.168;2023-04-15T12:06:22;9.80;99.90
59148;DHT22;44930;52.878;6.168;2023-04-15T12:11:49;9.70;99.90
59148;DHT22;44930;52.878;6.168;2023-04-15T12:19:36;9.80;99.90
59148;DHT22;44930;52.878;6.168;2023-04-15T12:22:12;9.70;99.90
59148;DHT22;44930;52.878;6.168;2023-04-15T12:24:38;9.90;99.90
59148;DHT22;44930;52.878;6.168;2023-04-15T12:27:09;9.60;99.90
59148;DHT22;44930;52.878;6.168;2023-04-15T12:29:38;9.60;99.90
59148;DHT22;44930;52.878;6.168;2023-04-15T12:32:07;9.60;99.90
59148;DHT22;44930;52.878;6.168;2023-04-15T12:34:34;9.50;99.90
59148;DHT22;44930;52.878;6.168;2023-04-15T12:37:02;9.60;99.90
59148;DHT22;44930;52.878;6.168;2023-04-15T12:39:33;9.60;99.90
59148;DHT22;44930;52.878;6.168;2023-04-15T12:41:59;9.70;99.90
59148;DHT22;44930;52.878;6.168;2023-04-15T12:44:26;9.70;99.90
59148;DHT22;44930;52.878;6.168;2023-04-15T12:46:52;9.80;99.90
59148;DHT22;44930;52.878;6.168;2023-04-15T12:49:19;9.60;99.90
59148;DHT22;44930;52.878;6.168;2023-04-15T12:51:51;9.90;99.90
59148;DHT22;44930;52.878;6.168;2023-04-15T12:54:17;9.70;99.90
59148;DHT22;44930;52.878;6.168;2023-04-15T12:56:46;9.90;99.90
59148;DHT22;44930;52.878;6.168;2023-04-15T12:59:13;9.80;99.90
59148;DHT22;44930;52.878;6.168;2023-04-15T13:04:05;9.60;99.90
59148;DHT22;44930;52.878;6.168;2023-04-15T13:06:32;9.40;99.90
59148;DHT22;44930;52.878;6.168;2023-04-15T13:09:01;9.70;99.90
59148;DHT22;44930;52.878;6.168;2023-04-15T13:11:28;9.70;99.90
59148;DHT22;44930;52.878;6.168;2023-04-15T13:13:56;9.80;99.90
59148;DHT22;44930;52.878;6.168;2023-04-15T13:16:22;9.80;99.90
59148;DHT22;44930;52.878;6.168;2023-04-15T13:18:48;9.80;99.90
59148;DHT22;44930;52.878;6.168;2023-04-15T13:21:15;9.70;99.90
59148;DHT22;44930;52.878;6.168;2023-04-15T13:23:41;9.60;99.90
59148;DHT22;44930;52.878;6.168;2023-04-15T13:26:06;9.70;99.90
59148;DHT22;44930;52.878;6.168;2023-04-15T13:28:32;9.50;99.90
59148;DHT22;44930;52.878;6.168;2023-04-15T13:30:58;9.70;99.90
59148;DHT22;44930;52.878;6.168;2023-04-15T13:33:24;9.60;99.90
59148;DHT22;44930;52.878;6.168;2023-04-15T13:35:50;9.60;99.90
59148;DHT22;44930;52.878;6.168;2023-04-15T13:38:16;9.70;99.90
59148;DHT22;44930;52.878;6.168;2023-04-15T13:40:41;9.60;99.90
59148;DHT22;44930;52.878;6.168;2023-04-15T13:43:07;9.70;99.90
59148;DHT22;44930;52.878;6.168;2023-04-15T13:45:32;9.60;99.90
59148;DHT22;44930;52.878;6.168;2023-04-15T13:52:50;9.70;99.90
59148;DHT22;44930;52.878;6.168;2023-04-15T13:55:16;9.70;99.90
59148;DHT22;44930;52.878;6.168;2023-04-15T13:57:42;9.90;99.90
59148;DHT22;44930;52.878;6.168;2023-04-15T14:00:08;9.80;99.90
59148;DHT22;44930;52.878;6.168;2023-04-15T14:02:33;9.70;99.90
59148;DHT22;44930;52.878;6.168;2023-04-15T14:04:59;9.70;99.90
59148;DHT22;44930;52.878;6.168;2023-04-15T14:07:25;9.60;99.90
59148;DHT22;44930;52.878;6.168;2023-04-15T14:09:50;9.50;99.90
59148;DHT22;44930;52.878;6.168;2023-04-15T14:12:16;9.60;99.90
59148;DHT22;44930;52.878;6.168;2023-04-15T14:14:43;9.70;99.90
59148;DHT22;44930;52.878;6.168;2023-04-15T14:17:09;9.60;99.90
59148;DHT22;44930;52.878;6.168;2023-04-15T14:19:34;9.50;99.90
59148;DHT22;44930;52.878;6.168;2023-04-15T14:22:00;9.60;99.90
59148;DHT22;44930;52.878;6.168;2023-04-15T14:24:25;9.50;99.90
59148;DHT22;44930;52.878;6.168;2023-04-15T14:26:51;9.50;99.90
59148;DHT22;44930;52.878;6.168;2023-04-15T14:29:17;9.40;99.90
59148;DHT22;44930;52.878;6.168;2023-04-15T14:31:43;9.50;99.90
59148;DHT22;44930;52.878;6.168;2023-04-15T14:34:09;9.40;99.90
59148;DHT22;44930;52.878;6.168;2023-04-15T14:36:35;9.40;99.90
59148;DHT22;44930;52.878;6.168;2023-04-15T14:39:01;9.30;99.90
59148;DHT22;44930;52.878;6.168;2023-04-15T14:41:28;9.40;99.90
59148;DHT22;44930;52.878;6.168;2023-04-15T14:43:54;9.40;99.90
59148;DHT22;44930;52.878;6.168;2023-04-15T14:46:19;9.30;99.90
59148;DHT22;44930;52.878;6.168;2023-04-15T14:48:45;9.30;99.90
59148;DHT22;44930;52.878;6.168;2023-04-15T14:51:11;9.20;99.90
59148;DHT22;44930;52.878;6.168;2023-04-15T14:53:36;9.10;99.90
59148;DHT22;44930;52.878;6.168;2023-04-15T14:56:02;8.90;99.90
59148;DHT22;44930;52.878;6.168;2023-04-15T14:58:27;9.20;99.90
59148;DHT22;44930;52.878;6.168;2023-04-15T15:00:53;9.20;99.90
59148;DHT22;44930;52.878;6.168;2023-04-15T15:03:19;9.30;99.90
59148;DHT22;44930;52.878;6.168;2023-04-15T15:05:45;9.30;99.90
59148;DHT22;44930;52.878;6.168;2023-04-15T15:08:12;9.10;99.90
59148;DHT22;44930;52.878;6.168;2023-04-15T15:10:38;9.20;99.90
59148;DHT22;44930;52.878;6.168;2023-04-15T15:13:07;9.20;99.90
59148;DHT22;44930;52.878;6.168;2023-04-15T15:15:34;8.90;99.90
59148;DHT22;44930;52.878;6.168;2023-04-15T15:18:00;9.00;99.90
59148;DHT22;44930;52.878;6.168;2023-04-15T15:20:26;9.10;99.90
59148;DHT22;44930;52.878;6.168;2023-04-15T15:22:52;9.10;99.90
59148;DHT22;44930;52.878;6.168;2023-04-15T15:25:18;9.10;99.90
59148;DHT22;44930;52.878;6.168;2023-04-15T15:27:44;9.00;99.90
59148;DHT22;44930;52.878;6.168;2023-04-15T15:30:10;9.10;99.90
59148;DHT22;44930;52.878;6.168;2023-04-15T15:32:38;9.00;99.90
59148;DHT22;44930;52.878;6.168;2023-04-15T15:35:04;8.90;99.90
59148;DHT22;44930;52.878;6.168;2023-04-15T15:37:30;9.00;99.90
59148;DHT22;44930;52.878;6.168;2023-04-15T15:39:56;9.00;99.90
59148;DHT22;44930;52.878;6.168;2023-04-15T15:42:21;9.00;99.90
59148;DHT22;44930;52.878;6.168;2023-04-15T15:44:48;9.00;99.90
59148;DHT22;44930;52.878;6.168;2023-04-15T15:47:16;9.00;99.90
59148;DHT22;44930;52.878;6.168;2023-04-15T15:49:42;9.00;99.90
59148;DHT22;44930;52.878;6.168;2023-04-15T15:52:07;9.00;99.90
59148;DHT22;44930;52.878;6.168;2023-04-15T15:54:33;9.10;99.90
59148;DHT22;44930;52.878;6.168;2023-04-15T15:56:59;8.90;99.90
59148;DHT22;44930;52.878;6.168;2023-04-15T15:59:26;9.00;99.90
59148;DHT22;44930;52.878;6.168;2023-04-15T16:01:51;9.00;99.90
59148;DHT22;44930;52.878;6.168;2023-04-15T16:04:17;8.80;99.90
59148;DHT22;44930;52.878;6.168;2023-04-15T16:06:43;8.80;99.90
59148;DHT22;44930;52.878;6.168;2023-04-15T16:09:12;8.60;99.90
59148;DHT22;44930;52.878;6.168;2023-04-15T16:11:38;8.80;99.90
59148;DHT22;44930;52.878;6.168;2023-04-15T16:14:03;8.80;99.90
59148;DHT22;44930;52.878;6.168;2023-04-15T16:16:29;8.90;99.90
59148;DHT22;44930;52.878;6.168;2023-04-15T16:18:56;8.90;99.90
59148;DHT22;44930;52.878;6.168;2023-04-15T16:21:22;8.90;99.90
59148;DHT22;44930;52.878;6.168;2023-04-15T16:23:49;8.80;99.90
59148;DHT22;44930;52.878;6.168;2023-04-15T16:26:15;8.80;99.90
59148;DHT22;44930;52.878;6.168;2023-04-15T16:28:41;8.80;99.90
59148;DHT22;44930;52.878;6.168;2023-04-15T16:31:06;8.70;99.90
59148;DHT22;44930;52.878;6.168;2023-04-15T16:33:32;8.70;99.90
59148;DHT22;44930;52.878;6.168;2023-04-15T16:35:58;8.70;99.90
59148;DHT22;44930;52.878;6.168;2023-04-15T16:38:24;8.60;99.90
59148;DHT22;44930;52.878;6.168;2023-04-15T16:40:50;8.70;99.90
59148;DHT22;44930;52.878;6.168;2023-04-15T16:43:16;8.70;99.90
59148;DHT22;44930;52.878;6.168;2023-04-15T16:45:41;8.70;99.90
59148;DHT22;44930;52.878;6.168;2023-04-15T16:50:35;8.80;99.90
59148;DHT22;44930;52.878;6.168;2023-04-15T16:53:01;8.60;99.90
59148;DHT22;44930;52.878;6.168;2023-04-15T16:55:27;8.70;99.90
59148;DHT22;44930;52.878;6.168;2023-04-15T17:00:19;8.50;99.90
59148;DHT22;44930;52.878;6.168;2023-04-15T17:02:45;8.60;99.90
59148;DHT22;44930;52.878;6.168;2023-04-15T17:05:10;8.60;99.90
59148;DHT22;44930;52.878;6.168;2023-04-15T17:07:36;8.60;99.90
59148;DHT22;44930;52.878;6.168;2023-04-15T17:10:02;8.40;99.90
59148;DHT22;44930;52.878;6.168;2023-04-15T17:12:28;8.60;99.90